Terminal Aerodrome Forecast
Issued by NWS Caribou, ME

Current Version | Previous Version | Text Only | Print | Product List | Glossary On
Versions: 1 2 3 4 5 6 7 8 9 10 11 12 13 14 15
388
FTUS41 KCAR 232320
TAFBGR
TAF
KBGR 232320Z 2400/2424 19009KT P6SM BCFG OVC007
      TEMPO 2400/2402 2SM BR OVC003
     FM240200 17008KT 2SM BR OVC003
     FM241100 20005KT P6SM OVC005
     FM241500 26007KT P6SM BKN012
     FM241900 27008KT P6SM BKN050=

USA.gov is the U.S. government's official web portal to all federal, state and local government web resources and services.